sensor_id;sensor_type;location;lat;lon;timestamp;pressure;altitude;pressure_sealevel;temperature;humidity
3122;BME280;1571;52.524;14.104;2023-01-29T00:02:23;102175.72;;;-1.21;86.97
3122;BME280;1571;52.524;14.104;2023-01-29T00:04:52;102174.09;;;-1.10;87.09
3122;BME280;1571;52.524;14.104;2023-01-29T00:07:25;102182.84;;;-1.03;87.04
3122;BME280;1571;52.524;14.104;2023-01-29T00:09:53;102175.78;;;-1.17;87.01
3122;BME280;1571;52.524;14.104;2023-01-29T00:12:24;102177.53;;;-1.13;87.21
3122;BME280;1571;52.524;14.104;2023-01-29T00:14:53;102171.47;;;-1.09;87.04
3122;BME280;1571;52.524;14.104;2023-01-29T00:17:21;102168.78;;;-1.21;87.33
3122;BME280;1571;52.524;14.104;2023-01-29T00:19:49;102154.19;;;-0.97;87.47
3122;BME280;1571;52.524;14.104;2023-01-29T00:22:18;102148.09;;;-0.99;87.43
3122;BME280;1571;52.524;14.104;2023-01-29T00:24:46;102145.44;;;-1.10;87.54
3122;BME280;1571;52.524;14.104;2023-01-29T00:27:14;102147.22;;;-1.00;87.57
3122;BME280;1571;52.524;14.104;2023-01-29T00:29:43;102144.63;;;-0.98;87.52
3122;BME280;1571;52.524;14.104;2023-01-29T00:32:28;102131.59;;;-0.98;87.62
3122;BME280;1571;52.524;14.104;2023-01-29T00:34:58;102129.88;;;-0.98;87.77
3122;BME280;1571;52.524;14.104;2023-01-29T00:37:26;102120.38;;;-0.90;87.80
3122;BME280;1571;52.524;14.104;2023-01-29T00:39:54;102123.78;;;-0.98;87.94
3122;BME280;1571;52.524;14.104;2023-01-29T00:42:22;102131.53;;;-1.08;88.32
3122;BME280;1571;52.524;14.104;2023-01-29T00:45:11;102123.75;;;-1.01;88.48
3122;BME280;1571;52.524;14.104;2023-01-29T00:47:39;102113.38;;;-0.95;88.27
3122;BME280;1571;52.524;14.104;2023-01-29T00:50:09;102111.59;;;-1.02;88.28
3122;BME280;1571;52.524;14.104;2023-01-29T00:52:39;102113.44;;;-0.86;88.40
3122;BME280;1571;52.524;14.104;2023-01-29T00:55:09;102107.16;;;-1.13;88.60
3122;BME280;1571;52.524;14.104;2023-01-29T00:57:38;102117.63;;;-1.10;88.58
3122;BME280;1571;52.524;14.104;2023-01-29T01:00:09;102121.09;;;-1.09;88.85
3122;BME280;1571;52.524;14.104;2023-01-29T01:02:39;102127.22;;;-1.02;88.81
3122;BME280;1571;52.524;14.104;2023-01-29T01:05:26;102135.06;;;-0.99;88.61
3122;BME280;1571;52.524;14.104;2023-01-29T01:07:56;102130.84;;;-0.85;88.56
3122;BME280;1571;52.524;14.104;2023-01-29T01:10:26;102115.16;;;-0.91;88.57
3122;BME280;1571;52.524;14.104;2023-01-29T01:12:55;102120.31;;;-0.97;88.24
3122;BME280;1571;52.524;14.104;2023-01-29T01:15:26;102117.72;;;-0.99;88.56
3122;BME280;1571;52.524;14.104;2023-01-29T01:17:58;102130.78;;;-0.88;88.22
3122;BME280;1571;52.524;14.104;2023-01-29T01:20:29;102123.78;;;-0.98;88.64
3122;BME280;1571;52.524;14.104;2023-01-29T01:22:58;102116.00;;;-0.91;88.82
3122;BME280;1571;52.524;14.104;2023-01-29T01:25:26;102116.84;;;-0.98;88.50
3122;BME280;1571;52.524;14.104;2023-01-29T01:27:57;102131.66;;;-0.89;88.78
3122;BME280;1571;52.524;14.104;2023-01-29T01:30:29;102111.75;;;-0.79;88.67
3122;BME280;1571;52.524;14.104;2023-01-29T01:32:59;102106.44;;;-0.96;88.74
3122;BME280;1571;52.524;14.104;2023-01-29T01:35:27;102112.53;;;-0.91;88.96
3122;BME280;1571;52.524;14.104;2023-01-29T01:37:55;102113.41;;;-0.92;89.23
3122;BME280;1571;52.524;14.104;2023-01-29T01:40:24;102114.31;;;-0.87;89.28
3122;BME280;1571;52.524;14.104;2023-01-29T01:42:54;102122.09;;;-0.90;89.15
3122;BME280;1571;52.524;14.104;2023-01-29T01:45:25;102114.28;;;-0.92;89.15
3122;BME280;1571;52.524;14.104;2023-01-29T01:48:00;102113.38;;;-0.95;89.38
3122;BME280;1571;52.524;14.104;2023-01-29T01:50:32;102106.44;;;-0.96;89.63
3122;BME280;1571;52.524;14.104;2023-01-29T01:53:05;102109.94;;;-0.91;89.67
3122;BME280;1571;52.524;14.104;2023-01-29T01:55:37;102113.47;;;-0.83;90.00
3122;BME280;1571;52.524;14.104;2023-01-29T01:58:10;102116.03;;;-0.92;89.80
3122;BME280;1571;52.524;14.104;2023-01-29T02:00:39;102113.44;;;-0.86;89.68
3122;BME280;1571;52.524;14.104;2023-01-29T02:03:10;102104.81;;;-0.76;89.80
3122;BME280;1571;52.524;14.104;2023-01-29T02:05:57;102117.66;;;-1.02;90.05
3122;BME280;1571;52.524;14.104;2023-01-29T02:08:50;102119.47;;;-0.96;90.31
3122;BME280;1571;52.524;14.104;2023-01-29T02:11:37;102106.44;;;-0.90;90.30
3122;BME280;1571;52.524;14.104;2023-01-29T02:14:06;102101.22;;;-0.93;90.54
3122;BME280;1571;52.524;14.104;2023-01-29T02:16:36;102097.78;;;-0.92;90.71
3122;BME280;1571;52.524;14.104;2023-01-29T02:19:14;102096.91;;;-0.88;90.90
3122;BME280;1571;52.524;14.104;2023-01-29T02:21:56;102089.94;;;-0.91;90.89
3122;BME280;1571;52.524;14.104;2023-01-29T02:24:58;102087.38;;;-0.81;91.12
3122;BME280;1571;52.524;14.104;2023-01-29T02:30:55;102083.91;;;-0.85;91.49
3122;BME280;1571;52.524;14.104;2023-01-29T02:33:34;102083.03;;;-0.87;91.74
3122;BME280;1571;52.524;14.104;2023-01-29T02:36:14;102073.47;;;-0.85;91.76
3122;BME280;1571;52.524;14.104;2023-01-29T02:38:52;102073.44;;;-0.88;92.01
3122;BME280;1571;52.524;14.104;2023-01-29T02:41:25;102072.53;;;-0.93;92.29
3122;BME280;1571;52.524;14.104;2023-01-29T02:44:02;102075.09;;;-1.02;92.53
3122;BME280;1571;52.524;14.104;2023-01-29T02:46:38;102070.78;;;-0.97;92.51
3122;BME280;1571;52.524;14.104;2023-01-29T02:49:17;102083.03;;;-0.82;92.43
3122;BME280;1571;52.524;14.104;2023-01-29T02:51:56;102075.13;;;-1.01;92.54
3122;BME280;1571;52.524;14.104;2023-01-29T02:54:32;102080.38;;;-0.90;92.75
3122;BME280;1571;52.524;14.104;2023-01-29T02:57:09;102069.16;;;-0.83;92.78
3122;BME280;1571;52.524;14.104;2023-01-29T02:59:44;102055.25;;;-0.77;92.63
3122;BME280;1571;52.524;14.104;2023-01-29T03:02:18;102051.72;;;-0.92;92.80
3122;BME280;1571;52.524;14.104;2023-01-29T03:04:52;102048.97;;;-1.09;93.21
3122;BME280;1571;52.524;14.104;2023-01-29T03:07:26;102048.19;;;-0.95;93.69
3122;BME280;1571;52.524;14.104;2023-01-29T03:10:28;102047.31;;;-1.00;93.95
3122;BME280;1571;52.524;14.104;2023-01-29T03:13:05;102040.31;;;-1.08;93.93
3122;BME280;1571;52.524;14.104;2023-01-29T03:15:39;102036.03;;;-0.95;93.86
3122;BME280;1571;52.524;14.104;2023-01-29T03:18:36;102035.16;;;-0.95;94.05
3122;BME280;1571;52.524;14.104;2023-01-29T03:21:17;102036.06;;;-0.90;94.12
3122;BME280;1571;52.524;14.104;2023-01-29T03:24:08;102030.84;;;-0.90;94.00
3122;BME280;1571;52.524;14.104;2023-01-29T03:26:57;102035.25;;;-0.83;93.94
3122;BME280;1571;52.524;14.104;2023-01-29T03:29:47;102023.09;;;-0.81;93.77
3122;BME280;1571;52.524;14.104;2023-01-29T03:32:48;102026.47;;;-0.97;93.87
3122;BME280;1571;52.524;14.104;2023-01-29T03:35:22;102024.78;;;-0.89;94.13
3122;BME280;1571;52.524;14.104;2023-01-29T03:38:05;102029.16;;;-0.80;94.18
3122;BME280;1571;52.524;14.104;2023-01-29T03:40:43;102023.06;;;-0.87;94.24
3122;BME280;1571;52.524;14.104;2023-01-29T03:43:19;102017.81;;;-0.90;94.27
3122;BME280;1571;52.524;14.104;2023-01-29T03:45:58;102012.59;;;-0.89;94.30
3122;BME280;1571;52.524;14.104;2023-01-29T03:48:33;102002.16;;;-0.93;94.36
3122;BME280;1571;52.524;14.104;2023-01-29T03:51:13;101997.81;;;-0.96;94.80
3122;BME280;1571;52.524;14.104;2023-01-29T03:53:49;101993.41;;;-1.01;94.92
3122;BME280;1571;52.524;14.104;2023-01-29T03:56:30;101993.41;;;-1.05;95.08
3122;BME280;1571;52.524;14.104;2023-01-29T03:59:04;101989.97;;;-0.97;95.23
3122;BME280;1571;52.524;14.104;2023-01-29T04:01:58;101990.78;;;-1.08;95.25
3122;BME280;1571;52.524;14.104;2023-01-29T04:04:30;101995.16;;;-1.03;95.48
3122;BME280;1571;52.524;14.104;2023-01-29T04:07:07;101992.44;;;-1.17;95.53
3122;BME280;1571;52.524;14.104;2023-01-29T04:09:42;101985.59;;;-1.00;95.81
3122;BME280;1571;52.524;14.104;2023-01-29T04:12:16;101981.22;;;-1.12;96.12
3122;BME280;1571;52.524;14.104;2023-01-29T04:14:47;101971.66;;;-1.08;95.92
3122;BME280;1571;52.524;14.104;2023-01-29T04:17:20;101967.34;;;-1.05;96.06
3122;BME280;1571;52.524;14.104;2023-01-29T04:20:09;101963.81;;;-1.13;96.16
3122;BME280;1571;52.524;14.104;2023-01-29T04:22:44;101965.56;;;-1.15;96.34
3122;BME280;1571;52.524;14.104;2023-01-29T04:25:15;101969.00;;;-1.16;96.40
3122;BME280;1571;52.524;14.104;2023-01-29T04:27:49;101963.00;;;-1.06;96.79
3122;BME280;1571;52.524;14.104;2023-01-29T04:30:22;101957.81;;;-1.01;96.94
3122;BME280;1571;52.524;14.104;2023-01-29T04:33:02;101943.03;;;-1.03;96.80
3122;BME280;1571;52.524;14.104;2023-01-29T04:35:39;101950.00;;;-0.96;96.89
3122;BME280;1571;52.524;14.104;2023-01-29T04:38:21;101948.22;;;-1.07;97.04
3122;BME280;1571;52.524;14.104;2023-01-29T04:40:59;101943.00;;;-1.07;97.32
3122;BME280;1571;52.524;14.104;2023-01-29T04:43:38;101940.31;;;-1.20;97.34
3122;BME280;1571;52.524;14.104;2023-01-29T04:46:12;101937.72;;;-1.17;97.93
3122;BME280;1571;52.524;14.104;2023-01-29T04:48:54;101936.06;;;-1.08;97.67
3122;BME280;1571;52.524;14.104;2023-01-29T04:51:33;101929.13;;;-1.06;97.82
3122;BME280;1571;52.524;14.104;2023-01-29T04:54:08;101922.06;;;-1.22;97.94
3122;BME280;1571;52.524;14.104;2023-01-29T04:56:45;101926.50;;;-1.06;98.14
3122;BME280;1571;52.524;14.104;2023-01-29T04:59:18;101932.59;;;-1.05;98.30
3122;BME280;1571;52.524;14.104;2023-01-29T05:01:48;101926.56;;;-0.96;98.03
3122;BME280;1571;52.524;14.104;2023-01-29T05:04:18;101931.72;;;-1.06;98.29
3122;BME280;1571;52.524;14.104;2023-01-29T05:06:48;101928.25;;;-1.03;98.33
3122;BME280;1571;52.524;14.104;2023-01-29T05:09:18;101930.94;;;-0.83;98.28
3122;BME280;1571;52.524;14.104;2023-01-29T05:11:48;101930.88;;;-0.98;98.59
3122;BME280;1571;52.524;14.104;2023-01-29T05:14:18;101927.50;;;-0.71;98.80
3122;BME280;1571;52.524;14.104;2023-01-29T05:16:50;101936.97;;;-0.93;98.85
3122;BME280;1571;52.524;14.104;2023-01-29T05:19:19;101944.91;;;-0.72;98.94
3122;BME280;1571;52.524;14.104;2023-01-29T05:21:48;101936.19;;;-0.71;98.54
3122;BME280;1571;52.524;14.104;2023-01-29T05:24:20;101937.88;;;-0.79;98.75
3122;BME280;1571;52.524;14.104;2023-01-29T05:26:51;101946.63;;;-0.71;98.88
3122;BME280;1571;52.524;14.104;2023-01-29T05:29:39;101938.78;;;-0.72;99.11
3122;BME280;1571;52.524;14.104;2023-01-29T05:32:09;101944.00;;;-0.71;99.41
3122;BME280;1571;52.524;14.104;2023-01-29T05:34:38;101947.50;;;-0.69;99.47
3122;BME280;1571;52.524;14.104;2023-01-29T05:37:08;101946.63;;;-0.68;99.93
3122;BME280;1571;52.524;14.104;2023-01-29T05:39:38;101950.09;;;-0.81;100.00
3122;BME280;1571;52.524;14.104;2023-01-29T05:42:06;101950.06;;;-0.82;100.00
3122;BME280;1571;52.524;14.104;2023-01-29T05:44:34;101948.31;;;-0.84;100.00
3122;BME280;1571;52.524;14.104;2023-01-29T05:47:02;101945.72;;;-0.85;100.00
3122;BME280;1571;52.524;14.104;2023-01-29T05:49:30;101937.81;;;-1.03;100.00
3122;BME280;1571;52.524;14.104;2023-01-29T05:51:58;101946.59;;;-0.83;100.00
3122;BME280;1571;52.524;14.104;2023-01-29T05:54:27;101941.34;;;-0.92;100.00
3122;BME280;1571;52.524;14.104;2023-01-29T05:56:56;101951.72;;;-0.98;100.00
3122;BME280;1571;52.524;14.104;2023-01-29T05:59:24;101961.28;;;-1.00;100.00
3122;BME280;1571;52.524;14.104;2023-01-29T06:01:52;101958.69;;;-1.00;100.00
3122;BME280;1571;52.524;14.104;2023-01-29T06:04:21;101960.47;;;-0.89;100.00
3122;BME280;1571;52.524;14.104;2023-01-29T06:06:49;101960.44;;;-0.96;100.00
3122;BME280;1571;52.524;14.104;2023-01-29T06:09:17;101963.94;;;-0.94;100.00
3122;BME280;1571;52.524;14.104;2023-01-29T06:11:45;101956.94;;;-0.95;100.00
3122;BME280;1571;52.524;14.104;2023-01-29T06:14:15;101957.84;;;-0.92;100.00
3122;BME280;1571;52.524;14.104;2023-01-29T06:16:43;101960.41;;;-1.06;100.00
3122;BME280;1571;52.524;14.104;2023-01-29T06:19:11;101962.16;;;-0.95;100.00
3122;BME280;1571;52.524;14.104;2023-01-29T06:21:39;101965.69;;;-0.87;100.00
3122;BME280;1571;52.524;14.104;2023-01-29T06:24:08;101962.19;;;-0.94;100.00
3122;BME280;1571;52.524;14.104;2023-01-29T06:26:36;101967.41;;;-0.89;100.00
3122;BME280;1571;52.524;14.104;2023-01-29T06:29:04;101963.03;;;-0.95;100.00
3122;BME280;1571;52.524;14.104;2023-01-29T06:31:34;101960.50;;;-0.81;100.00
3122;BME280;1571;52.524;14.104;2023-01-29T06:34:06;101958.72;;;-0.88;100.00
3122;BME280;1571;52.524;14.104;2023-01-29T06:36:34;101965.66;;;-0.96;100.00
3122;BME280;1571;52.524;14.104;2023-01-29T06:39:02;101946.59;;;-0.80;100.00
3122;BME280;1571;52.524;14.104;2023-01-29T06:41:31;101941.31;;;-0.95;100.00
3122;BME280;1571;52.524;14.104;2023-01-29T06:43:59;101942.22;;;-0.92;100.00
3122;BME280;1571;52.524;14.104;2023-01-29T06:46:27;101952.66;;;-0.86;100.00
3122;BME280;1571;52.524;14.104;2023-01-29T06:48:58;101948.31;;;-0.82;100.00
3122;BME280;1571;52.524;14.104;2023-01-29T06:51:27;101956.16;;;-0.80;100.00
3122;BME280;1571;52.524;14.104;2023-01-29T06:53:55;101962.25;;;-0.77;100.00
3122;BME280;1571;52.524;14.104;2023-01-29T06:56:23;101946.59;;;-0.77;100.00
3122;BME280;1571;52.524;14.104;2023-01-29T06:58:51;101961.41;;;-0.74;100.00
3122;BME280;1571;52.524;14.104;2023-01-29T07:01:20;101960.50;;;-0.78;100.00
3122;BME280;1571;52.524;14.104;2023-01-29T07:04:03;101960.50;;;-0.78;100.00
3122;BME280;1571;52.524;14.104;2023-01-29T07:06:32;101957.91;;;-0.76;100.00
3122;BME280;1571;52.524;14.104;2023-01-29T07:09:01;101964.00;;;-0.68;100.00
3122;BME280;1571;52.524;14.104;2023-01-29T07:11:29;101970.06;;;-0.80;100.00
3122;BME280;1571;52.524;14.104;2023-01-29T07:13:58;101954.41;;;-0.81;100.00
3122;BME280;1571;52.524;14.104;2023-01-29T07:16:26;101957.88;;;-0.82;100.00
3122;BME280;1571;52.524;14.104;2023-01-29T07:18:54;101951.81;;;-0.83;100.00
3122;BME280;1571;52.524;14.104;2023-01-29T07:21:24;101953.53;;;-0.79;100.00
3122;BME280;1571;52.524;14.104;2023-01-29T07:23:52;101953.53;;;-0.79;100.00
3122;BME280;1571;52.524;14.104;2023-01-29T07:26:20;101957.91;;;-0.73;100.00
3122;BME280;1571;52.524;14.104;2023-01-29T07:28:49;101947.50;;;-0.64;100.00
3122;BME280;1571;52.524;14.104;2023-01-29T07:31:17;101948.41;;;-0.59;100.00
3122;BME280;1571;52.524;14.104;2023-01-29T07:33:45;101940.59;;;-0.60;100.00
3122;BME280;1571;52.524;14.104;2023-01-29T07:36:14;101937.97;;;-0.57;100.00
3122;BME280;1571;52.524;14.104;2023-01-29T07:38:47;101953.59;;;-0.64;100.00
3122;BME280;1571;52.524;14.104;2023-01-29T07:41:16;101946.66;;;-0.52;100.00
3122;BME280;1571;52.524;14.104;2023-01-29T07:43:45;101931.88;;;-0.55;100.00
3122;BME280;1571;52.524;14.104;2023-01-29T07:46:13;101927.59;;;-0.33;100.00
3122;BME280;1571;52.524;14.104;2023-01-29T07:48:42;101933.69;;;-0.35;100.00
3122;BME280;1571;52.524;14.104;2023-01-29T07:51:10;101939.75;;;-0.35;100.00
3122;BME280;1571;52.524;14.104;2023-01-29T07:53:38;101938.03;;;-0.36;100.00
3122;BME280;1571;52.524;14.104;2023-01-29T07:56:08;101931.94;;;-0.30;100.00
3122;BME280;1571;52.524;14.104;2023-01-29T07:58:36;101922.38;;;-0.31;100.00
3122;BME280;1571;52.524;14.104;2023-01-29T08:01:05;101929.31;;;-0.35;100.00
3122;BME280;1571;52.524;14.104;2023-01-29T08:03:34;101920.63;;;-0.40;100.00
3122;BME280;1571;52.524;14.104;2023-01-29T08:06:03;101929.34;;;-0.19;100.00
3122;BME280;1571;52.524;14.104;2023-01-29T08:08:32;101919.78;;;-0.22;100.00
3122;BME280;1571;52.524;14.104;2023-01-29T08:11:01;101918.94;;;-0.13;100.00
3122;BME280;1571;52.524;14.104;2023-01-29T08:13:31;101922.34;;;-0.39;100.00
3122;BME280;1571;52.524;14.104;2023-01-29T08:16:00;101923.25;;;-0.22;100.00
3122;BME280;1571;52.524;14.104;2023-01-29T08:18:29;101910.19;;;-0.18;100.00
3122;BME280;1571;52.524;14.104;2023-01-29T08:20:58;101915.44;;;-0.15;100.00
3122;BME280;1571;52.524;14.104;2023-01-29T08:23:27;101916.31;;;-0.06;100.00
3122;BME280;1571;52.524;14.104;2023-01-29T08:25:56;101918.03;;;-0.22;100.00
3122;BME280;1571;52.524;14.104;2023-01-29T08:28:24;101918.06;;;-0.15;100.00
3122;BME280;1571;52.524;14.104;2023-01-29T08:30:54;101914.56;;;-0.22;100.00
3122;BME280;1571;52.524;14.104;2023-01-29T08:33:23;101915.41;;;-0.18;100.00
3122;BME280;1571;52.524;14.104;2023-01-29T08:36:05;101916.31;;;-0.15;100.00
3122;BME280;1571;52.524;14.104;2023-01-29T08:38:34;101920.63;;;-0.18;100.00
3122;BME280;1571;52.524;14.104;2023-01-29T08:41:03;101920.66;;;-0.11;100.00
3122;BME280;1571;52.524;14.104;2023-01-29T08:43:32;101925.00;;;-0.14;100.00
3122;BME280;1571;52.524;14.104;2023-01-29T08:46:03;101922.38;;;-0.14;100.00
3122;BME280;1571;52.524;14.104;2023-01-29T08:48:32;101911.97;;;-0.08;100.00
3122;BME280;1571;52.524;14.104;2023-01-29T08:51:01;101917.19;;;0.12;100.00
3122;BME280;1571;52.524;14.104;2023-01-29T08:53:30;101905.00;;;0.09;100.00
3122;BME280;1571;52.524;14.104;2023-01-29T08:55:59;101901.50;;;0.16;100.00
3122;BME280;1571;52.524;14.104;2023-01-29T08:58:27;101898.91;;;0.10;100.00
3122;BME280;1571;52.524;14.104;2023-01-29T09:00:55;101883.22;;;0.13;100.00
3122;BME280;1571;52.524;14.104;2023-01-29T09:03:25;101884.97;;;-0.03;100.00
3122;BME280;1571;52.524;14.104;2023-01-29T09:05:53;101891.94;;;0.11;100.00
3122;BME280;1571;52.524;14.104;2023-01-29T09:08:21;101898.91;;;0.16;100.00
3122;BME280;1571;52.524;14.104;2023-01-29T09:10:49;101890.19;;;0.14;100.00
3122;BME280;1571;52.524;14.104;2023-01-29T09:13:18;101890.19;;;0.14;100.00
3122;BME280;1571;52.524;14.104;2023-01-29T09:15:46;101886.72;;;0.09;100.00
3122;BME280;1571;52.524;14.104;2023-01-29T09:18:14;101891.06;;;0.10;100.00
3122;BME280;1571;52.524;14.104;2023-01-29T09:20:43;101884.09;;;0.12;100.00
3122;BME280;1571;52.524;14.104;2023-01-29T09:23:12;101885.81;;;0.13;100.00
3122;BME280;1571;52.524;14.104;2023-01-29T09:25:41;101889.31;;;0.11;100.00
3122;BME280;1571;52.524;14.104;2023-01-29T09:28:09;101891.06;;;0.09;100.00
3122;BME280;1571;52.524;14.104;2023-01-29T09:30:37;101894.56;;;0.18;100.00
3122;BME280;1571;52.524;14.104;2023-01-29T09:33:06;101892.81;;;0.20;100.00
3122;BME280;1571;52.524;14.104;2023-01-29T09:35:34;101897.16;;;0.28;100.00
3122;BME280;1571;52.524;14.104;2023-01-29T09:38:04;101905.84;;;0.28;100.00
3122;BME280;1571;52.524;14.104;2023-01-29T09:44:46;101884.97;;;0.16;100.00
3122;BME280;1571;52.524;14.104;2023-01-29T09:47:16;101878.00;;;0.27;100.00
3122;BME280;1571;52.524;14.104;2023-01-29T09:49:47;101882.34;;;0.28;100.00
3122;BME280;1571;52.524;14.104;2023-01-29T09:52:19;101877.94;;;0.38;100.00
3122;BME280;1571;52.524;14.104;2023-01-29T09:54:56;101870.16;;;0.16;100.00
3122;BME280;1571;52.524;14.104;2023-01-29T09:57:32;101864.91;;;0.29;100.00
3122;BME280;1571;52.524;14.104;2023-01-29T10:00:01;101856.25;;;0.20;100.00
3122;BME280;1571;52.524;14.104;2023-01-29T10:02:49;101847.50;;;0.31;100.00
3122;BME280;1571;52.524;14.104;2023-01-29T10:05:29;101847.50;;;0.31;100.00
3122;BME280;1571;52.524;14.104;2023-01-29T10:08:17;101849.22;;;0.38;100.00
3122;BME280;1571;52.524;14.104;2023-01-29T10:10:58;101834.41;;;0.45;100.00
3122;BME280;1571;52.524;14.104;2023-01-29T10:13:39;101834.44;;;0.32;100.00
3122;BME280;1571;52.524;14.104;2023-01-29T10:16:30;101833.56;;;0.35;100.00
3122;BME280;1571;52.524;14.104;2023-01-29T10:19:31;101825.72;;;0.36;100.00
3122;BME280;1571;52.524;14.104;2023-01-29T10:25:05;101830.88;;;0.55;100.00
3122;BME280;1571;52.524;14.104;2023-01-29T10:27:40;101835.19;;;0.65;100.00
3122;BME280;1571;52.524;14.104;2023-01-29T10:30:21;101841.31;;;0.61;100.00
3122;BME280;1571;52.524;14.104;2023-01-29T10:32:53;101843.91;;;0.67;100.00
3122;BME280;1571;52.524;14.104;2023-01-29T10:35:23;101850.00;;;0.72;100.00
3122;BME280;1571;52.524;14.104;2023-01-29T10:37:57;101849.19;;;0.53;100.00
3122;BME280;1571;52.524;14.104;2023-01-29T10:40:36;101844.81;;;0.61;100.00
3122;BME280;1571;52.524;14.104;2023-01-29T10:43:10;101847.38;;;0.71;100.00
3122;BME280;1571;52.524;14.104;2023-01-29T10:45:45;101836.91;;;0.77;100.00
3122;BME280;1571;52.524;14.104;2023-01-29T10:48:34;101826.47;;;0.72;100.00
3122;BME280;1571;52.524;14.104;2023-01-29T10:51:11;101816.91;;;0.60;100.00
3122;BME280;1571;52.524;14.104;2023-01-29T10:53:52;101818.59;;;0.75;100.00
3122;BME280;1571;52.524;14.104;2023-01-29T10:59:32;101818.53;;;0.89;100.00
3122;BME280;1571;52.524;14.104;2023-01-29T11:02:12;101802.88;;;0.83;100.00
3122;BME280;1571;52.524;14.104;2023-01-29T11:04:41;101794.97;;;0.95;100.00
3122;BME280;1571;52.524;14.104;2023-01-29T11:07:09;101783.69;;;0.87;100.00
3122;BME280;1571;52.524;14.104;2023-01-29T11:09:41;101786.31;;;0.87;100.00
3122;BME280;1571;52.524;14.104;2023-01-29T11:12:13;101779.25;;;0.98;100.00
3122;BME280;1571;52.524;14.104;2023-01-29T11:14:46;101788.00;;;0.97;100.00
3122;BME280;1571;52.524;14.104;2023-01-29T11:17:19;101783.63;;;0.98;100.00
3122;BME280;1571;52.524;14.104;2023-01-29T11:19:48;101774.06;;;0.95;100.00
3122;BME280;1571;52.524;14.104;2023-01-29T11:22:19;101783.59;;;1.04;100.00
3122;BME280;1571;52.524;14.104;2023-01-29T11:25:07;101774.81;;;1.11;100.00
3122;BME280;1571;52.524;14.104;2023-01-29T11:27:41;101773.03;;;1.19;100.00
3122;BME280;1571;52.524;14.104;2023-01-29T11:30:20;101753.75;;;1.30;100.00
3122;BME280;1571;52.524;14.104;2023-01-29T11:32:56;101741.53;;;1.32;100.00
3122;BME280;1571;52.524;14.104;2023-01-29T11:35:26;101752.00;;;1.33;100.00
3122;BME280;1571;52.524;14.104;2023-01-29T11:38:05;101737.00;;;1.54;100.00
3122;BME280;1571;52.524;14.104;2023-01-29T11:40:37;101732.50;;;1.68;100.00
3122;BME280;1571;52.524;14.104;2023-01-29T11:46:10;101722.88;;;1.69;100.00
3122;BME280;1571;52.524;14.104;2023-01-29T11:52:08;101713.16;;;1.80;100.00
3122;BME280;1571;52.524;14.104;2023-01-29T11:54:42;101708.44;;;2.11;100.00
3122;BME280;1571;52.524;14.104;2023-01-29T11:57:23;101712.19;;;1.88;100.00
3122;BME280;1571;52.524;14.104;2023-01-29T11:59:59;101709.41;;;2.04;100.00
3122;BME280;1571;52.524;14.104;2023-01-29T12:02:56;101701.72;;;1.92;100.00
3122;BME280;1571;52.524;14.104;2023-01-29T12:05:27;101698.97;;;2.01;100.00
3122;BME280;1571;52.524;14.104;2023-01-29T12:07:56;101706.16;;;1.85;100.00
3122;BME280;1571;52.524;14.104;2023-01-29T12:10:30;101682.53;;;1.86;100.00
3122;BME280;1571;52.524;14.104;2023-01-29T12:13:10;101675.44;;;1.98;100.00
3122;BME280;1571;52.524;14.104;2023-01-29T12:15:46;101670.88;;;2.14;100.00
3122;BME280;1571;52.524;14.104;2023-01-29T12:18:22;101661.25;;;2.16;100.00
3122;BME280;1571;52.524;14.104;2023-01-29T12:20:54;101652.38;;;2.27;100.00
3122;BME280;1571;52.524;14.104;2023-01-29T12:23:31;101649.09;;;2.10;100.00
3122;BME280;1571;52.524;14.104;2023-01-29T12:26:05;101643.78;;;2.16;100.00
3122;BME280;1571;52.524;14.104;2023-01-29T12:28:43;101639.44;;;2.14;100.00
3122;BME280;1571;52.524;14.104;2023-01-29T12:31:24;101637.53;;;2.25;100.00
3122;BME280;1571;52.524;14.104;2023-01-29T12:34:00;101633.06;;;2.35;100.00
3122;BME280;1571;52.524;14.104;2023-01-29T12:36:36;101622.56;;;2.35;100.00
3122;BME280;1571;52.524;14.104;2023-01-29T12:39:08;101619.91;;;2.38;100.00
3122;BME280;1571;52.524;14.104;2023-01-29T12:41:41;101616.28;;;2.45;100.00
3122;BME280;1571;52.524;14.104;2023-01-29T12:44:15;101617.00;;;2.56;100.00
3122;BME280;1571;52.524;14.104;2023-01-29T12:46:48;101608.28;;;2.54;100.00
3122;BME280;1571;52.524;14.104;2023-01-29T12:49:22;101603.25;;;2.42;100.00
3122;BME280;1571;52.524;14.104;2023-01-29T12:51:55;101610.41;;;2.31;100.00
3122;BME280;1571;52.524;14.104;2023-01-29T12:54:31;101617.16;;;2.45;100.00
3122;BME280;1571;52.524;14.104;2023-01-29T12:57:02;101621.59;;;2.42;100.00
3122;BME280;1571;52.524;14.104;2023-01-29T12:59:38;101613.59;;;2.51;100.00
3122;BME280;1571;52.524;14.104;2023-01-29T13:02:19;101606.50;;;2.56;100.00
3122;BME280;1571;52.524;14.104;2023-01-29T13:04:55;101626.09;;;2.32;100.00
3122;BME280;1571;52.524;14.104;2023-01-29T13:07:30;101624.34;;;2.31;100.00
3122;BME280;1571;52.524;14.104;2023-01-29T13:10:04;101628.66;;;2.35;100.00
3122;BME280;1571;52.524;14.104;2023-01-29T13:12:36;101629.59;;;2.33;100.00
3122;BME280;1571;52.524;14.104;2023-01-29T13:15:19;101623.75;;;2.11;100.00
3122;BME280;1571;52.524;14.104;2023-01-29T13:17:52;101631.47;;;2.21;100.00
3122;BME280;1571;52.524;14.104;2023-01-29T13:20:28;101630.44;;;2.33;100.00
3122;BME280;1571;52.524;14.104;2023-01-29T13:23:00;101628.63;;;2.38;100.00
3122;BME280;1571;52.524;14.104;2023-01-29T13:25:31;101629.41;;;2.45;100.00
3122;BME280;1571;52.524;14.104;2023-01-29T13:27:59;101619.06;;;2.34;100.00
3122;BME280;1571;52.524;14.104;2023-01-29T13:30:29;101611.31;;;2.26;100.00
3122;BME280;1571;52.524;14.104;2023-01-29T13:33:00;101611.38;;;2.23;100.00
3122;BME280;1571;52.524;14.104;2023-01-29T13:35:39;101615.84;;;2.15;100.00
3122;BME280;1571;52.524;14.104;2023-01-29T13:38:22;101606.03;;;2.29;100.00
3122;BME280;1571;52.524;14.104;2023-01-29T13:40:52;101614.00;;;2.23;100.00
3122;BME280;1571;52.524;14.104;2023-01-29T13:43:23;101609.59;;;2.25;100.00
3122;BME280;1571;52.524;14.104;2023-01-29T13:45:52;101607.78;;;2.31;100.00
3122;BME280;1571;52.524;14.104;2023-01-29T13:48:24;101611.13;;;2.40;100.00
3122;BME280;1571;52.524;14.104;2023-01-29T13:50:56;101615.50;;;2.40;100.00